M I D A S
Marine Information and Data Acquisition System
Tripno 2081 of the Zeeleeuw from 2011-04-20 06:41:16 to 2011-04-20 14:45:01
Back to CruiseResearch ActivitiesStationsMapUnderway DataData graphs

EquipmentUnitsComment
TimeDGPSUTC
LatitudeDGPSDM.mWGS84
LongitudeDGPSDM.mWGS84
HeadingGyrodeg 
SOGDGPSknotsSpeed over ground
COGDGPSdegCourse over ground
DepthEcho soundermeters200 kHz
Missing or incorrect values are displayed as -999
Navigation data collected by the RV Zeeleeuw from 2011-04-20 06:39:02 to 2011-04-20 14:47:07
Time Latitude Longitude Heading SOG COG Depth
2011-04-20 06:40:10 51°13.677 2°55.892 103.3 4 286 -999
2011-04-20 06:41:10 51°13.69 2°55.798 96 3.1 278 4.8
2011-04-20 06:42:09 51°13.692 2°55.742 73.4 0.6 285 11.6
2011-04-20 06:43:10 51°13.709 2°55.748 18.7 1.7 5 -999
2011-04-20 06:44:09 51°13.752 2°55.716 326.3 5 323 10.1
2011-04-20 06:45:09 51°13.862 2°55.614 334.4 9.5 334 9.8
2011-04-20 06:46:09 51°14.02 2°55.501 336.6 10.9 336 9.6
2011-04-20 06:47:10 51°14.186 2°55.369 331.7 10.1 330 -999
2011-04-20 06:48:10 51°14.303 2°55.253 328 6.8 328 -999
2011-04-20 06:49:10 51°14.381 2°55.174 328.1 4.8 327 -999
2011-04-20 06:50:10 51°14.459 2°55.087 324.4 7.8 322 9.6
2011-04-20 06:51:08 51°14.574 2°54.89 312.6 12.5 306 10.2
2011-04-20 06:52:06 51°14.705 2°54.622 314.8 13.4 308 9.8
2011-04-20 06:53:06 51°14.839 2°54.339 318 13.3 313 8.7
2011-04-20 06:54:06 51°15.003 2°54.12 329.6 12.6 322 7.4
2011-04-20 06:55:06 51°15.167 2°53.897 326.9 13.1 323 8.1
2011-04-20 06:56:06 51°15.357 2°53.74 343.2 12.9 336 8.8
2011-04-20 06:57:06 51°15.551 2°53.587 347.7 12.7 344 9.6
2011-04-20 06:58:06 51°15.757 2°53.52 350.9 12.8 342 11.3
2011-04-20 06:59:07 51°15.959 2°53.39 342.2 12.9 335 10.3
2011-04-20 07:00:06 51°16.153 2°53.26 344.9 12.9 337 10.6
2011-04-20 07:01:07 51°16.354 2°53.116 344.3 13 337 10.7
2011-04-20 07:02:06 51°16.548 2°52.974 342.2 13 337 10.5
2011-04-20 07:03:06 51°16.743 2°52.828 337.1 12.8 331 9
2011-04-20 07:04:06 51°16.932 2°52.682 342.9 12.6 338 8.4
2011-04-20 07:05:07 51°17.126 2°52.531 334.2 12.8 328 8.4
2011-04-20 07:06:07 51°17.317 2°52.379 341.9 12.9 336 9
2011-04-20 07:07:06 51°17.504 2°52.218 338.6 13 334 9.8
2011-04-20 07:08:07 51°17.703 2°52.074 340.6 12.9 334 9.8
2011-04-20 07:09:07 51°17.893 2°51.919 340.5 12.8 336 9
2011-04-20 07:10:07 51°18.087 2°51.773 337.8 13 331 9.5
2011-04-20 07:11:06 51°18.278 2°51.619 341.2 13 335 10.5
2011-04-20 07:12:07 51°18.474 2°51.458 339.4 13 334 11.8
2011-04-20 07:13:06 51°18.667 2°51.31 340.9 13 334 12.9
2011-04-20 07:14:06 51°18.861 2°51.151 339.1 13.2 332 13.4
2011-04-20 07:15:06 51°19.055 2°50.99 340.1 13.2 333 13.7
2011-04-20 07:16:06 51°19.251 2°50.827 340.5 13.2 333 13.1
2011-04-20 07:17:07 51°19.45 2°50.667 342.5 13.1 335 11.3
2011-04-20 07:18:06 51°19.644 2°50.521 343.4 13.1 335 10.7
2011-04-20 07:19:07 51°19.846 2°50.363 342.8 13.3 335 12.4
2011-04-20 07:20:06 51°20.042 2°50.214 342.4 13.3 335 13.9
2011-04-20 07:21:06 51°20.241 2°50.062 341.8 13.2 334 16.8
2011-04-20 07:22:06 51°20.44 2°49.917 341.1 13.2 334 19.6
2011-04-20 07:23:06 51°20.64 2°49.766 341.9 13.4 335 21.6
2011-04-20 07:24:06 51°20.84 2°49.615 341.2 13.3 334 21.7
2011-04-20 07:25:06 51°21.039 2°49.461 341.8 13.3 334 21.4
2011-04-20 07:26:07 51°21.24 2°49.303 343.2 13.3 334 21
2011-04-20 07:27:06 51°21.437 2°49.153 343 13.3 334 20.4
2011-04-20 07:28:07 51°21.641 2°48.996 342.7 13.4 335 21.7
2011-04-20 07:29:06 51°21.84 2°48.843 342.3 13.5 335 22.4
2011-04-20 07:30:07 51°22.047 2°48.688 342.9 13.5 336 22.3
2011-04-20 07:31:06 51°22.247 2°48.541 342.9 13.5 336 21.5
2011-04-20 07:32:06 51°22.451 2°48.39 342.9 13.4 336 16
2011-04-20 07:33:06 51°22.652 2°48.242 342.3 13.3 336 16.8
2011-04-20 07:34:06 51°22.852 2°48.099 343.4 13.2 336 18.6
2011-04-20 07:35:06 51°23.051 2°47.952 341.9 13.1 334 18.6
2011-04-20 07:36:06 51°23.249 2°47.801 341.9 13.2 335 17.3
2011-04-20 07:37:07 51°23.451 2°47.652 341.8 13.1 335 18.3
2011-04-20 07:38:06 51°23.645 2°47.502 341.7 13.2 334 21.9
2011-04-20 07:39:07 51°23.846 2°47.347 341.8 13.3 332 18.4
2011-04-20 07:40:06 51°24.04 2°47.195 341.9 13.2 334 25.1
2011-04-20 07:41:06 51°24.237 2°47.041 342.7 13.2 335 25.5
2011-04-20 07:42:06 51°24.435 2°46.889 342.1 13.2 334 29.5
2011-04-20 07:43:06 51°24.632 2°46.737 342.4 13.1 334 28.2
2011-04-20 07:44:07 51°24.832 2°46.581 341.9 13.2 334 24.4
2011-04-20 07:45:06 51°25.026 2°46.432 342.4 13.2 335 23.7
2011-04-20 07:46:07 51°25.228 2°46.277 342.9 13.2 335 23.9
2011-04-20 07:47:06 51°25.424 2°46.125 341.9 13.3 334 23.5
2011-04-20 07:48:07 51°25.627 2°45.972 342.7 13.2 335 22.8
2011-04-20 07:49:06 51°25.822 2°45.825 342.7 13.1 335 24.3
2011-04-20 07:50:07 51°26.024 2°45.674 343.2 13.1 335 24.7
2011-04-20 07:51:06 51°26.218 2°45.527 342.8 13.1 335 26.1
2011-04-20 07:52:06 51°26.418 2°45.379 342 13.2 335 26.6
2011-04-20 07:53:06 51°26.617 2°45.234 342.4 13.1 335 27.2
2011-04-20 07:54:06 51°26.812 2°45.084 342.3 12.9 335 26.7
2011-04-20 07:55:07 51°27.009 2°44.933 342.6 12.9 334 27
2011-04-20 07:56:06 51°27.201 2°44.786 342.7 13 334 26.3
2011-04-20 07:57:07 51°27.4 2°44.636 341.9 13.1 334 25.6
2011-04-20 07:58:06 51°27.592 2°44.49 342.4 13.1 334 25.1
2011-04-20 07:59:07 51°27.791 2°44.339 342.7 13 335 26
2011-04-20 08:00:06 51°27.985 2°44.196 342.9 13 334 28.2
2011-04-20 08:01:07 51°28.184 2°44.046 341.6 13 336 29.2
2011-04-20 08:02:06 51°28.376 2°43.903 341.9 13.1 335 30.4
2011-04-20 08:03:06 51°28.574 2°43.759 342.6 13 335 29.2
2011-04-20 08:04:07 51°28.773 2°43.614 342.6 12.9 335 29.4
2011-04-20 08:05:06 51°28.964 2°43.475 341.9 12.8 334 27.1
2011-04-20 08:06:07 51°29.156 2°43.327 342.4 12.6 334 29.2
2011-04-20 08:07:06 51°29.343 2°43.199 348.6 12.3 341 29.3
2011-04-20 08:08:07 51°29.542 2°43.158 13.7 11.7 9 29.4
2011-04-20 08:09:06 51°29.725 2°43.243 23.5 11.6 20 29.9
2011-04-20 08:10:06 51°29.915 2°43.306 9.2 11.9 2 31
2011-04-20 08:11:06 51°30.111 2°43.321 16.8 11.6 14 30.8
2011-04-20 08:12:06 51°30.3 2°43.392 21 11.6 17 30.3
2011-04-20 08:13:07 51°30.489 2°43.466 18.7 11.5 14 29.6
2011-04-20 08:14:06 51°30.672 2°43.541 17.1 11.6 12 30.4
2011-04-20 08:15:07 51°30.846 2°43.669 26.1 11.3 20 32.1
2011-04-20 08:16:06 51°31.025 2°43.759 22 11.5 18 32.6
2011-04-20 08:17:07 51°31.21 2°43.852 23 11.4 17 32.4
2011-04-20 08:18:06 51°31.386 2°43.949 32.2 11.2 30 32.4
2011-04-20 08:19:07 51°31.568 2°44.043 15.3 11.5 10 33.1
2011-04-20 08:20:06 51°31.737 2°44.157 25.9 11.3 21 33.6
2011-04-20 08:21:06 51°31.913 2°44.265 21.8 11.4 14 32.9
2011-04-20 08:22:06 51°32.097 2°44.338 27.5 11.2 24 31.6
2011-04-20 08:23:06 51°32.259 2°44.486 35.1 11.2 31 31.4
2011-04-20 08:24:06 51°32.433 2°44.6 20.6 11.4 15 32.4
2011-04-20 08:25:06 51°32.613 2°44.696 22.6 11.4 18 29.3
2011-04-20 08:26:07 51°32.794 2°44.8 24.8 11.3 21 30
2011-04-20 08:27:06 51°32.969 2°44.897 17.4 11.4 10 29.5
2011-04-20 08:28:07 51°33.163 2°44.919 5.6 11.6 359 28.7
2011-04-20 08:29:06 51°33.343 2°44.969 29.1 11.1 28 27
2011-04-20 08:30:06 51°33.516 2°45.079 20.4 11.2 18 28.3
2011-04-20 08:31:06 51°33.692 2°45.18 24.1 11.3 20 27.3
2011-04-20 08:32:06 51°33.869 2°45.283 23.8 11.2 20 27.1
2011-04-20 08:33:07 51°34.053 2°45.363 15.9 11.5 9 26.6
2011-04-20 08:34:06 51°34.242 2°45.369 2.4 11.7 355 19.2
2011-04-20 08:35:07 51°34.383 2°45.288 331.3 5 308 13.5
2011-04-20 08:36:06 51°34.394 2°45.198 301.1 3.3 271 14.5
2011-04-20 08:37:07 51°34.39 2°45.111 293.2 3.2 262 13.6
2011-04-20 08:38:06 51°34.383 2°45.033 291.1 2.8 262 17.1
2011-04-20 08:39:07 51°34.372 2°44.96 288.4 2.7 257 18.4
2011-04-20 08:40:06 51°34.36 2°44.894 283.6 2.6 252 17.5
2011-04-20 08:41:06 51°34.346 2°44.825 281.6 3.8 260 20.2
2011-04-20 08:42:06 51°34.339 2°44.681 278.8 7 268 21.6
2011-04-20 08:43:06 51°34.367 2°44.414 295 12.3 290 21.8
2011-04-20 08:44:07 51°34.477 2°44.131 326.4 12 322 30.1
2011-04-20 08:45:06 51°34.657 2°44.018 355.5 11.9 348 33
2011-04-20 08:46:07 51°34.849 2°44.033 28.6 11.1 30 34.7
2011-04-20 08:47:06 51°35.009 2°44.174 26.2 11.3 25 34.3
2011-04-20 08:48:06 51°35.165 2°44.33 32 11.2 31 30.8
2011-04-20 08:49:06 51°35.291 2°44.546 52.8 11.3 54 33
2011-04-20 08:50:06 51°35.392 2°44.799 56 11.2 57 30.6
2011-04-20 08:51:06 51°35.5 2°45.044 53.1 11.3 55 27.7
2011-04-20 08:52:06 51°35.622 2°45.265 42.3 11.2 41 26.7
2011-04-20 08:53:07 51°35.764 2°45.467 42.9 11.2 38 26.7
2011-04-20 08:54:06 51°35.91 2°45.645 42.2 11.3 42 24.9
2011-04-20 08:55:07 51°36.041 2°45.866 50.2 11.2 51 25.6
2011-04-20 08:56:06 51°36.141 2°46.113 57.5 11.2 59 20
2011-04-20 08:57:06 51°36.236 2°46.368 54.7 11.1 56 19.9
2011-04-20 08:58:06 51°36.35 2°46.601 50.2 11.1 50 15.9
2011-04-20 08:59:06 51°36.462 2°46.831 51 10.8 51 15.1
2011-04-20 09:00:06 51°36.597 2°47.024 39.5 10.9 37 19.5
2011-04-20 09:01:06 51°36.744 2°47.192 37.6 10.8 35 21.1
2011-04-20 09:02:07 51°36.906 2°47.335 29.7 11 27 23.8
2011-04-20 09:03:06 51°37.074 2°47.441 19.1 11.1 14 23.9
2011-04-20 09:04:07 51°37.243 2°47.558 31.7 10.8 30 24.2
2011-04-20 09:05:06 51°37.392 2°47.714 33.7 10.9 32 28
2011-04-20 09:06:06 51°37.551 2°47.85 31.3 10.8 30 21.3
2011-04-20 09:07:06 51°37.702 2°48.004 32.9 10.8 30 28.4
2011-04-20 09:08:06 51°37.864 2°48.135 30 10.9 29 27.8
2011-04-20 09:09:06 51°38.018 2°48.286 32.4 10.8 28 33
2011-04-20 09:10:06 51°38.179 2°48.419 29.4 10.9 25 32.3
2011-04-20 09:11:07 51°38.345 2°48.546 30.5 10.9 28 34.1
2011-04-20 09:12:06 51°38.501 2°48.683 29.5 10.9 27 32.7
2011-04-20 09:13:07 51°38.667 2°48.813 29.2 10.9 27 34.8
2011-04-20 09:14:06 51°38.827 2°48.938 25 10.9 21 33.5
2011-04-20 09:15:07 51°38.995 2°49.062 29.8 10.9 28 33.3
2011-04-20 09:16:06 51°39.151 2°49.2 29.1 11 26 35.8
2011-04-20 09:17:06 51°39.315 2°49.327 28.6 10.9 26 35.4
2011-04-20 09:18:06 51°39.484 2°49.433 22.1 11 18 35.5
2011-04-20 09:19:06 51°39.662 2°49.507 16.7 11.1 13 35.6
2011-04-20 09:20:07 51°39.837 2°49.612 26.9 11 24 36.4
2011-04-20 09:21:06 51°40.003 2°49.725 24.6 11.1 22 37.7
2011-04-20 09:22:07 51°40.182 2°49.82 19 11.2 14 37.8
2011-04-20 09:23:06 51°40.362 2°49.871 14.5 11.2 11 36.8
2011-04-20 09:24:07 51°40.55 2°49.919 13.4 11.3 8 37.2
2011-04-20 09:25:06 51°40.727 2°49.986 19.6 11.1 16 36.7
2011-04-20 09:26:06 51°40.902 2°50.077 22.8 11.1 20 36.1
2011-04-20 09:27:06 51°41.082 2°50.133 8.9 11.2 2 36.6
2011-04-20 09:28:06 51°41.268 2°50.148 9.5 11.2 4 34.7
2011-04-20 09:29:06 51°41.454 2°50.113 348.7 11.7 333 33.1
2011-04-20 09:30:06 51°41.6 2°49.88 321.9 12.7 313 31.4
2011-04-20 09:31:06 51°41.75 2°49.642 327 12.6 318 26.7
2011-04-20 09:32:06 51°41.913 2°49.434 331.5 12.4 323 28.4
2011-04-20 09:33:07 51°42.082 2°49.236 331.5 12.5 322 26.7
2011-04-20 09:34:06 51°42.236 2°49.01 321.2 12.9 311 28
2011-04-20 09:35:06 51°42.363 2°48.725 308.9 13.4 299 29.4
2011-04-20 09:36:06 51°42.404 2°48.367 269.6 14.2 258 31.2
2011-04-20 09:37:06 51°42.259 2°48.059 213.5 14.8 213 29.5
2011-04-20 09:38:06 51°42.031 2°47.907 195.7 15 202 30.2
2011-04-20 09:39:06 51°41.804 2°47.739 202.1 15 204 31.1
2011-04-20 09:40:06 51°41.576 2°47.572 201.6 15.1 206 31.9
2011-04-20 09:41:06 51°41.356 2°47.381 207.2 14.9 211 27.3
2011-04-20 09:42:06 51°41.139 2°47.182 200.2 15.1 203 26.3
2011-04-20 09:43:06 51°40.908 2°47.026 199.2 15 203 34.1
2011-04-20 09:44:06 51°40.68 2°46.869 199.3 14.9 203 34
2011-04-20 09:45:06 51°40.451 2°46.715 196.9 14.9 201 35.2
2011-04-20 09:46:06 51°40.219 2°46.568 197.3 14.9 202 35.6
2011-04-20 09:47:06 51°39.986 2°46.433 192.4 14.9 197 35.2
2011-04-20 09:48:06 51°39.749 2°46.323 190.5 14.7 194 36.4
2011-04-20 09:49:06 51°39.509 2°46.233 188.1 14.8 193 35.1
2011-04-20 09:50:06 51°39.272 2°46.124 192.7 14.7 198 36.7
2011-04-20 09:51:06 51°39.032 2°46.029 187.3 14.9 193 33.6
2011-04-20 09:52:06 51°38.794 2°45.929 191.2 14.7 195 35.4
2011-04-20 09:53:06 51°38.556 2°45.83 189 14.7 194 32.8
2011-04-20 09:54:06 51°38.319 2°45.747 188 14.5 193 34
2011-04-20 09:55:06 51°38.083 2°45.652 187.9 14.7 192 33.3
2011-04-20 09:56:06 51°37.843 2°45.583 183.5 14.7 188 35.3
2011-04-20 09:57:06 51°37.603 2°45.517 188.8 14.7 196 35.2
2011-04-20 09:58:06 51°37.371 2°45.383 196.1 14.8 199 35.1
2011-04-20 09:59:06 51°37.137 2°45.259 192.2 14.8 198 35.9
2011-04-20 10:00:06 51°36.903 2°45.137 193.8 14.8 196 36.1
2011-04-20 10:01:06 51°36.667 2°45.013 194.4 14.9 200 36.4
2011-04-20 10:02:06 51°36.432 2°44.89 189.3 14.7 195 38.4
2011-04-20 10:03:06 51°36.198 2°44.771 195.3 14.7 200 37.7
2011-04-20 10:04:06 51°35.964 2°44.651 188.3 14.7 194 35.4
2011-04-20 10:05:06 51°35.727 2°44.557 190.6 14.8 198 35.6
2011-04-20 10:06:06 51°35.498 2°44.412 197 14.8 201 35.4
2011-04-20 10:07:06 51°35.263 2°44.29 191.6 14.8 197 34.4
2011-04-20 10:08:06 51°35.028 2°44.164 194.6 14.9 200 35.7
2011-04-20 10:09:06 51°34.797 2°44.019 197.3 15 203 33.5
2011-04-20 10:10:06 51°34.57 2°43.857 197 14.9 200 34.3
2011-04-20 10:11:06 51°34.331 2°43.774 180.9 14.6 189 31.1
2011-04-20 10:12:06 51°34.095 2°43.672 193.9 14.8 199 32.3
2011-04-20 10:13:06 51°33.868 2°43.526 198.8 14.7 203 32.4
2011-04-20 10:14:06 51°33.644 2°43.363 201.1 14.8 204 32
2011-04-20 10:15:06 51°33.417 2°43.216 193.4 14.7 198 31.8
2011-04-20 10:16:06 51°33.234 2°42.976 237.6 14.4 240 30.8
2011-04-20 10:17:06 51°33.134 2°42.621 249.3 14.6 246 33.9
2011-04-20 10:18:06 51°33.021 2°42.273 240.9 14.8 238 31.2
2011-04-20 10:19:06 51°32.867 2°41.96 225.8 15.1 226 34.7
2011-04-20 10:20:06 51°32.706 2°41.654 232.3 15 232 37
2011-04-20 10:21:06 51°32.569 2°41.321 241.7 14.8 242 37.7
2011-04-20 10:22:06 51°32.461 2°40.965 248.1 14.8 245 36.5
2011-04-20 10:23:06 51°32.378 2°40.598 257 14.6 254 38.2
2011-04-20 10:24:06 51°32.363 2°40.224 289.2 13.4 287 38
2011-04-20 10:25:06 51°32.507 2°40.066 11 10.2 14 37.5
2011-04-20 10:26:06 51°32.626 2°40.267 49 10.8 53 38.7
2011-04-20 10:27:06 51°32.761 2°40.45 28.9 10.7 27 37.8
2011-04-20 10:28:06 51°32.922 2°40.581 29.3 10.9 31 37.8
2011-04-20 10:29:06 51°33.077 2°40.723 19.5 10.8 13 39.3
2011-04-20 10:30:06 51°33.258 2°40.768 12.9 11 10 39.1
2011-04-20 10:31:06 51°33.435 2°40.846 19.3 10.9 19 38.9
2011-04-20 10:32:06 51°33.603 2°40.959 25.2 11 26 40.7
2011-04-20 10:33:06 51°33.758 2°41.109 31.3 10.8 34 39.7
2011-04-20 10:34:06 51°33.917 2°41.25 24.9 11 25 40.6
2011-04-20 10:35:06 51°34.084 2°41.367 22.2 10.9 20 40.4
2011-04-20 10:36:06 51°34.254 2°41.479 22.9 11 22 40.5
2011-04-20 10:37:06 51°34.425 2°41.585 22 11 23 39.8
2011-04-20 10:38:07 51°34.6 2°41.683 17 11.1 16 40.4
2011-04-20 10:39:06 51°34.772 2°41.778 17.3 11.2 16 40.8
2011-04-20 10:40:06 51°34.946 2°41.876 16.6 11.1 15 40.5
2011-04-20 10:41:06 51°35.124 2°41.955 16.9 11.2 16 40.1
2011-04-20 10:42:06 51°35.299 2°42.055 20.6 11.1 18 41.9
2011-04-20 10:43:06 51°35.484 2°42.102 10.4 11.3 10 40.8
2011-04-20 10:44:06 51°35.665 2°42.178 17.7 11.3 19 41.9
2011-04-20 10:45:06 51°35.845 2°42.269 18.6 11.4 19 42.6
2011-04-20 10:46:06 51°36.026 2°42.362 15.4 11.5 14 41.2
2011-04-20 10:47:06 51°36.21 2°42.439 18.3 11.4 19 41.4
2011-04-20 10:48:06 51°36.389 2°42.533 14.9 11.4 12 39.3
2011-04-20 10:49:06 51°36.573 2°42.604 17.3 11.3 17 38.1
2011-04-20 10:50:06 51°36.747 2°42.715 24.8 11.3 25 37.9
2011-04-20 10:51:06 51°36.922 2°42.818 15.3 11.4 13 38
2011-04-20 10:52:06 51°37.106 2°42.889 16.9 11.3 15 37.9
2011-04-20 10:53:06 51°37.285 2°42.983 20.4 11.2 19 37.2
2011-04-20 10:54:06 51°37.459 2°43.097 24.4 11.3 24 37.4
2011-04-20 10:55:06 51°37.628 2°43.229 23.1 11.3 22 36.5
2011-04-20 10:56:06 51°37.802 2°43.347 26.9 11.3 26 36.8
2011-04-20 10:57:06 51°37.977 2°43.455 22.5 11.3 22 36.6
2011-04-20 10:58:06 51°38.149 2°43.578 24 11.2 22 35.8
2011-04-20 10:59:06 51°38.326 2°43.681 21 11.3 19 36.8
2011-04-20 11:00:06 51°38.509 2°43.763 20.5 11.3 19 35.2
2011-04-20 11:01:06 51°38.688 2°43.855 16.3 11.4 13 37.7
2011-04-20 11:02:07 51°38.877 2°43.922 14.9 11.5 9 36.8
2011-04-20 11:03:06 51°39.059 2°43.983 16.9 11.4 15 39.5
2011-04-20 11:04:07 51°39.244 2°44.068 16.8 11.4 12 36.9
2011-04-20 11:05:06 51°39.422 2°44.152 22.3 11.4 21 35.6
2011-04-20 11:06:06 51°39.601 2°44.252 17.9 11.4 13 37.9
2011-04-20 11:07:06 51°39.789 2°44.299 15.8 11.5 13 38.9
2011-04-20 11:08:06 51°39.97 2°44.393 24.8 11.3 22 35.8
2011-04-20 11:09:06 51°40.145 2°44.51 27.4 11.3 25 38.1
2011-04-20 11:10:06 51°40.323 2°44.612 24.1 11.4 22 36.6
2011-04-20 11:11:06 51°40.504 2°44.711 23.3 11.4 21 36.6
2011-04-20 11:12:06 51°40.675 2°44.846 28 11.4 24 38.4
2011-04-20 11:13:06 51°40.857 2°44.943 20.4 11.6 17 38.6
2011-04-20 11:14:06 51°41.036 2°45.051 24.8 11.5 23 40.6
2011-04-20 11:15:06 51°41.215 2°45.164 23.1 11.6 21 40.7
2011-04-20 11:16:06 51°41.394 2°45.274 19.7 11.4 14 35.8
2011-04-20 11:17:06 51°41.584 2°45.338 16.9 11.6 14 40.4
2011-04-20 11:18:07 51°41.775 2°45.422 18.6 11.7 16 40.7
2011-04-20 11:19:06 51°41.953 2°45.531 25.5 11.6 23 39.3
2011-04-20 11:20:06 51°42.135 2°45.636 19 11.6 15 38.9
2011-04-20 11:21:06 51°42.319 2°45.74 24.7 11.7 20 40.1
2011-04-20 11:22:06 51°42.504 2°45.836 19.7 11.8 16 38.5
2011-04-20 11:23:06 51°42.69 2°45.93 18.3 11.8 14 40.7
2011-04-20 11:24:06 51°42.878 2°46.014 20.4 11.6 18 40.3
2011-04-20 11:25:06 51°43.059 2°46.13 25.8 11.6 23 32.7
2011-04-20 11:26:06 51°43.235 2°46.071 325.3 12.1 315 34
2011-04-20 11:27:06 51°43.377 2°45.825 322.8 12.6 315 32.5
2011-04-20 11:28:06 51°43.533 2°45.602 325.4 12.5 319 34.2
2011-04-20 11:29:06 51°43.694 2°45.389 328.8 12.5 322 39
2011-04-20 11:30:06 51°43.852 2°45.173 322.2 12.6 316 36.8
2011-04-20 11:31:06 51°44.007 2°44.946 326.7 12.5 320 37.2
2011-04-20 11:32:06 51°44.172 2°44.747 331.8 12.3 326 40.6
2011-04-20 11:33:06 51°44.346 2°44.575 334.3 12.2 321 39.3
2011-04-20 11:34:06 51°44.371 2°44.27 250.3 13.1 241 36.3
2011-04-20 11:35:06 51°44.173 2°44.124 187 14.1 189 35.4
2011-04-20 11:36:06 51°43.939 2°44.05 191.5 14.3 193 34.6
2011-04-20 11:37:06 51°43.71 2°43.93 198.1 14.4 199 39.1
2011-04-20 11:38:06 51°43.485 2°43.799 196.1 14.4 194 40.2
2011-04-20 11:39:06 51°43.251 2°43.762 179.8 14.1 184 35.7
2011-04-20 11:40:06 51°43.019 2°43.68 194.2 14.4 195 33.9
2011-04-20 11:41:06 51°42.791 2°43.574 195.1 14.2 197 37.9
2011-04-20 11:42:06 51°42.564 2°43.463 195.4 14.2 196 37
2011-04-20 11:43:06 51°42.338 2°43.345 198.5 14.3 199 34
2011-04-20 11:44:06 51°42.114 2°43.314 162.9 13.7 166 33.9
2011-04-20 11:45:06 51°41.883 2°43.318 188.7 14 192 37.7
2011-04-20 11:46:06 51°41.66 2°43.205 200.8 14.1 201 32.8
2011-04-20 11:47:06 51°41.448 2°43.045 208.3 14.1 209 33.3
2011-04-20 11:48:06 51°41.243 2°42.859 210.5 14.1 211 34.7
2011-04-20 11:49:06 51°41.042 2°42.665 206.7 14 205 33.6
2011-04-20 11:50:06 51°40.815 2°42.617 178 14 181 31.9
2011-04-20 11:51:06 51°40.582 2°42.589 188.8 14.1 192 33.7
2011-04-20 11:52:06 51°40.359 2°42.473 201.3 14.2 203 34.4
2011-04-20 11:53:06 51°40.153 2°42.295 212.4 14 213 32.5
2011-04-20 11:54:06 51°39.958 2°42.089 211.6 14 211 30.2
2011-04-20 11:55:06 51°39.747 2°41.932 198.2 13.9 198 31
2011-04-20 11:56:06 51°39.519 2°41.856 187.3 14.1 189 23
2011-04-20 11:57:06 51°39.291 2°41.855 165.6 13.8 169 27
2011-04-20 11:58:06 51°39.06 2°41.854 187.3 13.9 189 22.5
2011-04-20 11:59:06 51°38.839 2°41.742 203.2 13.9 204 25.2
2011-04-20 12:00:06 51°38.632 2°41.574 206.7 13.7 206 19.3
2011-04-20 12:01:06 51°38.427 2°41.407 208.4 13.8 208 22.9
2011-04-20 12:02:06 51°38.227 2°41.226 209.9 13.6 211 22.4
2011-04-20 12:03:06 51°38.041 2°41.018 218.1 13.6 219 24.6
2011-04-20 12:04:06 51°37.88 2°40.767 228.7 13.5 229 24.7
2011-04-20 12:05:06 51°37.74 2°40.489 228.1 13.4 228 27.2
2011-04-20 12:06:06 51°37.557 2°40.292 204.3 13.3 202 30.2
2011-04-20 12:07:06 51°37.337 2°40.238 182.3 13.5 184 29.6
2011-04-20 12:08:06 51°37.111 2°40.213 183.7 13.6 186 29.5
2011-04-20 12:09:06 51°36.892 2°40.136 195.6 13.6 197 29.4
2011-04-20 12:10:06 51°36.681 2°40.019 199.5 13.5 201 30.4
2011-04-20 12:11:06 51°36.464 2°39.936 188.5 13.3 189 29.9
2011-04-20 12:12:06 51°36.245 2°39.871 189.8 13.4 192 30.6
2011-04-20 12:13:06 51°36.029 2°39.783 195.4 13.3 195 30.7
2011-04-20 12:14:06 51°35.81 2°39.742 180.3 13.5 182 31.7
2011-04-20 12:15:06 51°35.589 2°39.701 191 13.2 190 32.1
2011-04-20 12:16:06 51°35.369 2°39.687 185.9 13.4 190 32.3
2011-04-20 12:17:06 51°35.162 2°39.578 200.9 13.1 200 30.3
2011-04-20 12:18:06 51°34.951 2°39.482 197.2 12.9 198 30.3
2011-04-20 12:19:06 51°34.747 2°39.362 199.3 13 198 29.9
2011-04-20 12:20:06 51°34.536 2°39.275 196.8 13.1 200 28.9
2011-04-20 12:21:06 51°34.334 2°39.152 197.5 13.1 196 28.6
2011-04-20 12:22:06 51°34.121 2°39.079 195 13 196 26.8
2011-04-20 12:23:06 51°33.918 2°38.962 197.6 13 195 24.9
2011-04-20 12:24:06 51°33.705 2°38.895 192.3 13.1 192 23.9
2011-04-20 12:25:06 51°33.498 2°38.789 199.1 13.1 198 25.2
2011-04-20 12:26:06 51°33.289 2°38.697 193.9 13.1 192 21.6
2011-04-20 12:27:06 51°33.084 2°38.595 205 12.7 204 19.1
2011-04-20 12:28:06 51°32.88 2°38.489 198.6 13.1 197 20
2011-04-20 12:29:06 51°32.68 2°38.37 201.8 13 199 19.3
2011-04-20 12:30:06 51°32.477 2°38.261 198.1 13 194 17.9
2011-04-20 12:31:06 51°32.268 2°38.173 200.5 12.9 198 15.7
2011-04-20 12:32:06 51°32.069 2°38.058 203.3 12.8 200 18.5
2011-04-20 12:33:06 51°31.861 2°37.994 199.7 12.7 198 17.8
2011-04-20 12:34:06 51°31.665 2°37.874 201.8 12.6 196 16.1
2011-04-20 12:35:06 51°31.466 2°37.771 205.5 12.5 201 16
2011-04-20 12:36:06 51°31.275 2°37.652 208.3 12.2 206 17.5
2011-04-20 12:37:06 51°31.086 2°37.522 200.4 12.5 196 20.9
2011-04-20 12:38:06 51°30.882 2°37.444 199.2 12.6 197 23.2
2011-04-20 12:39:06 51°30.687 2°37.327 202.9 12.5 201 23.8
2011-04-20 12:40:06 51°30.485 2°37.235 194.5 12.8 192 25.4
2011-04-20 12:41:06 51°30.284 2°37.143 201.7 12.4 199 25.9
2011-04-20 12:42:06 51°30.091 2°37.021 202.5 12.4 200 24.2
2011-04-20 12:43:06 51°29.89 2°36.929 200.2 12.5 199 28.7
2011-04-20 12:44:06 51°29.697 2°36.81 198.3 12.5 194 29.2
2011-04-20 12:45:06 51°29.492 2°36.741 196.8 12.5 194 29.7
2011-04-20 12:46:06 51°29.286 2°36.691 188.1 12.7 184 25.9
2011-04-20 12:47:06 51°29.079 2°36.724 159.2 13 154 27.6
2011-04-20 12:48:06 51°28.891 2°36.91 151.1 11.7 148 36.4
2011-04-20 12:49:06 51°28.822 2°37.068 102.8 5.6 95 38.2
2011-04-20 12:50:06 51°28.841 2°37.186 56.8 4 61 38.3
2011-04-20 12:51:06 51°28.879 2°37.267 37 3.6 51 38.8
2011-04-20 12:52:06 51°28.924 2°37.347 32.7 5.2 41 39.2
2011-04-20 12:53:06 51°29.014 2°37.405 353.8 6.2 4 39.4
2011-04-20 12:54:06 51°29.102 2°37.367 317.3 4.3 333 39.8
2011-04-20 12:55:06 51°29.145 2°37.323 292 2.3 318 39.3
2011-04-20 12:56:06 51°29.152 2°37.268 253.3 2.5 259 39.7
2011-04-20 12:57:06 51°29.127 2°37.202 231.6 3.3 229 37.3
2011-04-20 12:58:06 51°29.084 2°37.162 212.1 2.9 197 34
2011-04-20 12:59:06 51°29.045 2°37.162 194.4 2 165 38.1
2011-04-20 13:00:06 51°29.012 2°37.196 162.3 3.1 133 38
2011-04-20 13:01:06 51°28.994 2°37.293 99.7 4.8 87 39.7
2011-04-20 13:02:06 51°29.044 2°37.402 13.3 5.3 22 39
2011-04-20 13:03:06 51°29.121 2°37.364 309.7 6.7 323 39.5
2011-04-20 13:04:06 51°29.237 2°37.244 326.1 7.2 344 37.7
2011-04-20 13:05:06 51°29.354 2°37.297 11.9 8.3 23 38.4
2011-04-20 13:06:06 51°29.452 2°37.435 37.9 8.4 44 38.5
2011-04-20 13:07:06 51°29.52 2°37.564 58.2 5.2 62 39.8
2011-04-20 13:08:06 51°29.541 2°37.68 94.1 4.3 88 40.7
2011-04-20 13:09:06 51°29.52 2°37.776 153.3 3.8 134 40.3
2011-04-20 13:10:06 51°29.412 2°37.782 187.5 9.7 180 39.9
2011-04-20 13:11:06 51°29.219 2°37.811 179 12.1 175 39.9
2011-04-20 13:12:06 51°29.017 2°37.869 175 12.3 171 39.8
2011-04-20 13:13:06 51°28.821 2°37.969 160.4 12.7 155 39.8
2011-04-20 13:14:06 51°28.629 2°38.117 159.1 12.7 153 39.9
2011-04-20 13:15:06 51°28.461 2°38.331 145.1 13 140 39.6
2011-04-20 13:16:06 51°28.287 2°38.534 149.5 12.8 145 41.7
2011-04-20 13:17:06 51°28.117 2°38.741 145.2 13 140 38.5
2011-04-20 13:18:06 51°27.962 2°38.986 140.1 13.1 136 36.9
2011-04-20 13:19:06 51°27.796 2°39.211 148.1 12.9 145 39.1
2011-04-20 13:20:06 51°27.612 2°39.38 156 12.7 149 36.4
2011-04-20 13:21:06 51°27.442 2°39.589 146.3 12.9 141 36.3
2011-04-20 13:22:06 51°27.264 2°39.779 154.4 12.8 149 37.1
2011-04-20 13:23:06 51°27.08 2°39.952 153.6 12.9 147 37.2
2011-04-20 13:24:06 51°26.895 2°40.122 159.8 12.8 153 34.5
2011-04-20 13:25:06 51°26.702 2°40.263 162.1 12.7 155 33.7
2011-04-20 13:26:06 51°26.508 2°40.398 161 12.6 156 35.3
2011-04-20 13:27:06 51°26.323 2°40.546 159.6 12.3 153 35
2011-04-20 13:28:06 51°26.148 2°40.718 152.8 12.5 147 33.3
2011-04-20 13:29:06 51°25.971 2°40.882 157.6 12.3 151 32
2011-04-20 13:30:06 51°25.796 2°41.056 150.3 12.4 142 31.8
2011-04-20 13:31:06 51°25.644 2°41.29 139.4 12.9 131 26.2
2011-04-20 13:32:06 51°25.494 2°41.534 145 12.7 139 29.2
2011-04-20 13:33:06 51°25.327 2°41.734 151 12.4 145 29.6
2011-04-20 13:34:06 51°25.158 2°41.927 152.3 12.4 146 29.2
2011-04-20 13:35:06 51°24.985 2°42.101 152.3 12.4 143 29.4
2011-04-20 13:36:06 51°24.822 2°42.309 148.3 12.6 142 27.5
2011-04-20 13:37:06 51°24.651 2°42.499 152.1 12.5 145 28.7
2011-04-20 13:38:06 51°24.485 2°42.709 145.8 12.9 137 25.2
2011-04-20 13:39:06 51°24.325 2°42.936 148.6 12.8 143 25.6
2011-04-20 13:40:06 51°24.152 2°43.128 153.4 12.6 145 25.4
2011-04-20 13:41:06 51°23.988 2°43.334 150.7 12.6 142 25.5
2011-04-20 13:42:06 51°23.825 2°43.548 147.1 12.7 138 26.7
2011-04-20 13:43:06 51°23.666 2°43.77 151.7 12.5 144 29.4
2011-04-20 13:44:06 51°23.499 2°43.977 149.2 12.8 142 30
2011-04-20 13:45:06 51°23.331 2°44.183 149.6 12.7 142 30.4
2011-04-20 13:46:06 51°23.163 2°44.391 150 12.9 142 29.6
2011-04-20 13:47:06 51°22.992 2°44.597 150.3 12.8 144 29.1
2011-04-20 13:48:06 51°22.82 2°44.801 150.7 12.8 144 29.5
2011-04-20 13:49:06 51°22.65 2°45.01 149.3 12.9 142 29
2011-04-20 13:50:06 51°22.477 2°45.211 150.8 12.7 144 28.5
2011-04-20 13:51:06 51°22.311 2°45.429 146.1 12.9 142 26.5
2011-04-20 13:52:06 51°22.141 2°45.637 149.4 12.8 143 25
2011-04-20 13:53:06 51°21.976 2°45.854 143.8 12.8 134 24.9
2011-04-20 13:54:06 51°21.826 2°46.091 146.2 12.6 137 26.4
2011-04-20 13:55:06 51°21.67 2°46.311 147.7 12.7 138 28.5
2011-04-20 13:56:06 51°21.515 2°46.539 148.2 12.6 140 28.8
2011-04-20 13:57:06 51°21.359 2°46.771 143.9 12.9 135 28.5
2011-04-20 13:58:06 51°21.199 2°46.999 148.4 12.9 139 25.6
2011-04-20 13:59:06 51°21.039 2°47.234 145.9 13.1 139 25.7
2011-04-20 14:00:06 51°20.87 2°47.456 147.3 13 141 21.6
2011-04-20 14:01:06 51°20.7 2°47.674 150 12.9 146 22.5
2011-04-20 14:02:06 51°20.522 2°47.874 148.2 13.2 143 24
2011-04-20 14:03:06 51°20.355 2°48.099 144.9 13.1 139 25.1
2011-04-20 14:04:06 51°20.188 2°48.324 145.2 13.1 139 25.9
2011-04-20 14:05:06 51°20.024 2°48.545 148.3 12.8 141 25.6
2011-04-20 14:06:06 51°19.862 2°48.763 147.8 12.7 143 24.3
2011-04-20 14:07:06 51°19.703 2°48.994 139.4 13.2 132 21.6
2011-04-20 14:08:06 51°19.562 2°49.263 138.5 13.2 133 18.8
2011-04-20 14:09:06 51°19.411 2°49.515 140.7 13.1 135 17.6
2011-04-20 14:10:06 51°19.254 2°49.757 143.1 13.1 138 15.6
2011-04-20 14:11:06 51°19.083 2°49.961 147.7 12.9 142 14.8
2011-04-20 14:12:06 51°18.916 2°50.182 145.3 13 143 16.5
2011-04-20 14:13:06 51°18.753 2°50.406 139.5 13 134 17.6
2011-04-20 14:14:06 51°18.604 2°50.66 138.7 13 134 17.6
2011-04-20 14:15:06 51°18.445 2°50.887 143.5 12.8 139 17.1
2011-04-20 14:16:06 51°18.279 2°51.101 146.4 12.7 142 16.2
2011-04-20 14:17:06 51°18.111 2°51.306 147.9 12.7 144 15.1
2011-04-20 14:18:06 51°17.939 2°51.502 150 12.7 145 13.9
2011-04-20 14:19:06 51°17.768 2°51.698 150.3 12.5 147 13.4
2011-04-20 14:20:06 51°17.596 2°51.889 149.4 12.5 145 13.5
2011-04-20 14:21:06 51°17.425 2°52.078 151.5 12.5 146 14.4
2011-04-20 14:22:06 51°17.25 2°52.26 150.3 12.7 146 14.2
2011-04-20 14:23:06 51°17.076 2°52.444 150.9 12.5 147 13.2
2011-04-20 14:24:06 51°16.902 2°52.631 152.6 12.5 148 13.1
2011-04-20 14:25:06 51°16.723 2°52.807 151.8 12.8 146 14
2011-04-20 14:26:06 51°16.542 2°52.985 155 12.8 149 15.1
2011-04-20 14:27:06 51°16.361 2°53.162 157.1 12.7 151 15.2
2011-04-20 14:28:06 51°16.173 2°53.31 161.1 12.6 155 15
2011-04-20 14:29:06 51°15.979 2°53.429 166.1 12.4 160 14.8
2011-04-20 14:30:06 51°15.784 2°53.532 164.9 12.5 159 15.7
2011-04-20 14:31:06 51°15.599 2°53.69 150.4 12.9 144 15.3
2011-04-20 14:32:06 51°15.429 2°53.9 149 12.9 145 15.4
2011-04-20 14:33:06 51°15.257 2°54.099 148 12.7 145 15.2
2011-04-20 14:34:06 51°15.092 2°54.296 144.9 11.6 141 14.8
2011-04-20 14:35:06 51°14.951 2°54.507 141.3 11.8 134 14.7
2011-04-20 14:36:06 51°14.799 2°54.708 149.5 11.9 144 15.3
2011-04-20 14:37:06 51°14.635 2°54.892 151.7 12.2 146 14.9
2011-04-20 14:38:06 51°14.463 2°55.061 147.4 12.2 148 13.6
2011-04-20 14:39:07 51°14.297 2°55.241 142.3 10.6 146 13.4
2011-04-20 14:40:07 51°14.169 2°55.375 147.4 8.7 150 13.6
2011-04-20 14:41:07 51°14.035 2°55.478 153.6 9.1 155 13.8
2011-04-20 14:42:06 51°13.91 2°55.566 153.8 7.7 156 13.9
2011-04-20 14:43:06 51°13.802 2°55.647 151.6 6.9 152 14.1
2011-04-20 14:44:06 51°13.714 2°55.75 129.5 6 134 15.5
2011-04-20 14:45:07 51°13.681 2°55.862 105.1 3.8 107 12.2
2011-04-20 14:46:07 51°13.667 2°55.94 104.5 2.1 107 11.6